Time;durP1;ratioP1;P1;durP2;ratioP2;P2;SDS_P1;SDS_P2;PMS_P1;PMS_P2;Temp;Humidity;BMP_temperature;BMP_pressure;BME280_temperature;BME280_humidity;BME280_pressure;Samples;Min_cycle;Max_cycle;Signal;HPM_P1;HPM_P2
2022/05/21 00:00:27;;;;;;;1.85;0.95;;;;;23.50;100863.00;;;;2070599;28;20221;-58
2022/05/21 00:01:27;;;;;;;0.87;0.80;;;;;23.50;100854.00;;;;2062692;28;20772;-58
2022/05/21 00:02:27;;;;;;;0.90;0.70;;;;;23.50;100863.00;;;;2070735;28;20248;-57
2022/05/21 00:03:28;;;;;;;1.30;1.00;;;;;23.50;100859.00;;;;2071230;28;20257;-56
2022/05/21 00:04:28;;;;;;;1.10;0.93;;;;;23.50;100862.00;;;;2070836;28;20214;-58
2022/05/21 00:05:29;;;;;;;1.47;0.90;;;;;23.50;100863.00;;;;2070198;28;20698;-58
2022/05/21 00:06:29;;;;;;;1.10;0.90;;;;;23.50;100872.00;;;;2070476;28;20702;-56
2022/05/21 00:07:30;;;;;;;1.10;0.87;;;;;23.50;100871.00;;;;2070504;28;21072;-58
2022/05/21 00:08:31;;;;;;;1.00;0.80;;;;;23.50;100874.00;;;;2070554;28;20242;-58
2022/05/21 00:09:31;;;;;;;1.30;0.93;;;;;23.50;100872.00;;;;2070473;28;20605;-58
2022/05/21 00:10:32;;;;;;;0.97;0.87;;;;;23.50;100875.00;;;;2070958;28;20600;-58
2022/05/21 00:11:32;;;;;;;1.30;0.90;;;;;23.50;100877.00;;;;2062175;28;20625;-57
2022/05/21 00:12:32;;;;;;;1.20;0.90;;;;;23.50;100871.00;;;;2062399;28;20219;-55
2022/05/21 00:13:32;;;;;;;1.77;0.90;;;;;23.50;100871.00;;;;2062291;28;20214;-58
2022/05/21 00:14:34;;;;;;;1.33;1.00;;;;;23.50;100873.00;;;;2070243;28;20225;-58
2022/05/21 00:15:35;;;;;;;1.60;0.70;;;;;23.50;100871.00;;;;2061217;28;20243;-55
2022/05/21 00:16:35;;;;;;;1.33;1.07;;;;;23.50;100872.00;;;;2054710;28;20219;-58
2022/05/21 00:17:36;;;;;;;1.13;0.80;;;;;23.50;100852.00;;;;2070321;28;20556;-59
2022/05/21 00:18:36;;;;;;;1.10;0.60;;;;;23.50;100859.00;;;;2062426;28;20676;-58
2022/05/21 00:19:37;;;;;;;1.00;0.73;;;;;23.50;100871.00;;;;2060749;28;20338;-57
2022/05/21 00:20:49;;;;;;;1.60;0.90;;;;;23.50;100865.00;;;;2066302;28;20216;-58
2022/05/21 00:21:50;;;;;;;1.48;0.70;;;;;23.50;100866.00;;;;2071053;28;20217;-58
2022/05/21 00:22:50;;;;;;;1.00;0.90;;;;;23.50;100870.00;;;;2071023;28;20588;-58
2022/05/21 00:23:50;;;;;;;1.20;0.90;;;;;23.50;100863.00;;;;2071243;28;20237;-58
2022/05/21 00:24:51;;;;;;;1.10;0.80;;;;;23.50;100813.00;;;;2070156;28;20214;-55
2022/05/21 00:26:02;;;;;;;0.93;0.70;;;;;23.50;100865.00;;;;2069565;28;20993;-57
2022/05/21 00:27:03;;;;;;;1.00;0.90;;;;;23.40;100862.00;;;;2069138;28;20218;-58
2022/05/21 00:28:04;;;;;;;1.63;1.00;;;;;23.50;100858.00;;;;2070440;28;20218;-58
2022/05/21 00:29:04;;;;;;;0.80;0.70;;;;;23.50;100863.00;;;;2070414;28;20234;-58
2022/05/21 00:30:05;;;;;;;1.20;0.90;;;;;23.50;100871.00;;;;2070502;28;20300;-58
2022/05/21 00:31:06;;;;;;;1.10;0.87;;;;;23.50;100870.00;;;;2071101;28;20224;-58
2022/05/21 00:32:06;;;;;;;1.15;1.00;;;;;23.50;100862.00;;;;2070327;28;20265;-58
2022/05/21 00:33:07;;;;;;;1.30;1.10;;;;;23.50;100856.00;;;;2062258;28;20756;-57
2022/05/21 00:34:07;;;;;;;1.10;0.87;;;;;23.50;100858.00;;;;2078044;28;20221;-58
2022/05/21 00:35:08;;;;;;;0.90;0.80;;;;;23.50;100854.00;;;;2078362;28;20248;-55
2022/05/21 00:36:08;;;;;;;1.20;0.80;;;;;23.50;100851.00;;;;2078364;28;20221;-58
2022/05/21 00:37:09;;;;;;;1.20;0.93;;;;;23.40;100854.00;;;;2078216;28;20463;-58
2022/05/21 00:38:10;;;;;;;1.53;1.10;;;;;23.50;100851.00;;;;2077247;28;20259;-58
2022/05/21 00:39:10;;;;;;;2.60;0.80;;;;;23.50;100853.00;;;;2077995;28;20704;-58
2022/05/21 00:40:11;;;;;;;1.00;0.90;;;;;23.50;100851.00;;;;2078215;28;20514;-59
2022/05/21 00:41:14;;;;;;;1.10;0.77;;;;;23.50;100854.00;;;;2078280;28;20417;-56
2022/05/21 00:42:15;;;;;;;1.40;1.10;;;;;23.50;100853.00;;;;2078258;28;20596;-58
2022/05/21 00:43:56;;;;;;;1.10;0.80;;;;;23.50;100863.00;;;;2077405;28;20228;-58
2022/05/21 00:44:57;;;;;;;1.10;0.88;;;;;23.50;100859.00;;;;2078024;28;20217;-58
2022/05/21 00:45:57;;;;;;;1.53;0.90;;;;;23.50;100860.00;;;;2071990;28;20909;-58
2022/05/21 00:46:57;;;;;;;1.60;1.13;;;;;23.40;100860.00;;;;2070112;28;20202;-58
2022/05/21 00:47:58;;;;;;;1.13;0.80;;;;;23.50;100864.00;;;;2070217;28;20269;-59
2022/05/21 00:49:06;;;;;;;1.20;0.90;;;;;23.50;100851.00;;;;2070223;28;20210;-59
2022/05/21 00:50:08;;;;;;;1.60;0.90;;;;;23.50;100852.00;;;;2070408;28;20636;-58
2022/05/21 00:51:14;;;;;;;0.90;0.80;;;;;23.50;100858.00;;;;2061756;28;20226;-56
2022/05/21 00:52:17;;;;;;;0.80;0.70;;;;;23.40;100849.00;;;;2062847;28;20206;-58
2022/05/21 00:53:18;;;;;;;0.93;0.82;;;;;23.50;100864.00;;;;2054309;28;20204;-56
2022/05/21 00:54:22;;;;;;;1.30;0.95;;;;;23.40;100857.00;;;;2060130;28;20207;-56
2022/05/21 00:55:29;;;;;;;1.10;0.90;;;;;23.40;100858.00;;;;2061330;28;20723;-54
2022/05/21 00:56:30;;;;;;;0.90;0.70;;;;;23.40;100851.00;;;;2055108;28;20211;-59
2022/05/21 00:57:35;;;;;;;1.17;0.80;;;;;23.40;100855.00;;;;2053837;28;20219;-54
2022/05/21 00:59:58;;;;;;;1.00;0.80;;;;;23.40;100859.00;;;;2072897;28;20852;-58
2022/05/21 01:00:59;;;;;;;0.82;0.70;;;;;23.40;100858.00;;;;2061965;28;20219;-58
2022/05/21 01:02:02;;;;;;;1.20;0.90;;;;;23.40;100854.00;;;;2054209;28;20299;-57
2022/05/21 01:03:02;;;;;;;1.42;0.90;;;;;23.40;100867.00;;;;2052336;28;20470;-58
2022/05/21 01:04:03;;;;;;;1.33;1.10;;;;;23.40;100860.00;;;;2070013;28;20218;-58
2022/05/21 01:05:05;;;;;;;1.10;0.90;;;;;23.40;100863.00;;;;2078122;28;20699;-56
2022/05/21 01:06:05;;;;;;;1.05;0.90;;;;;23.40;100866.00;;;;2043900;28;20307;-57
2022/05/21 01:07:06;;;;;;;1.20;1.00;;;;;23.40;100861.00;;;;2053878;28;20215;-58
2022/05/21 01:08:06;;;;;;;1.30;1.20;;;;;23.40;100863.00;;;;2067884;28;20238;-58
2022/05/21 01:09:07;;;;;;;1.20;0.90;;;;;23.40;100843.00;;;;2070368;28;20214;-60
2022/05/21 01:10:08;;;;;;;1.27;0.90;;;;;23.40;100867.00;;;;2063377;28;20211;-61
2022/05/21 01:11:11;;;;;;;1.57;0.90;;;;;23.40;100858.00;;;;2070240;28;20218;-57
2022/05/21 01:12:11;;;;;;;1.20;0.90;;;;;23.40;100869.00;;;;2063704;28;20218;-62
2022/05/21 01:13:14;;;;;;;1.10;0.90;;;;;23.40;100861.00;;;;2062760;28;20738;-58
2022/05/21 01:14:15;;;;;;;1.20;0.82;;;;;23.40;100869.00;;;;2067349;28;20214;-58
2022/05/21 01:15:18;;;;;;;1.27;1.17;;;;;23.40;100860.00;;;;2048438;28;20216;-58
2022/05/21 01:16:18;;;;;;;2.05;0.80;;;;;23.40;100869.00;;;;2057082;28;20231;-57
2022/05/21 01:17:19;;;;;;;1.23;0.90;;;;;23.40;100866.00;;;;2062345;28;20257;-57
2022/05/21 01:18:20;;;;;;;1.00;0.90;;;;;23.40;100866.00;;;;2074854;28;20209;-61
2022/05/21 01:19:21;;;;;;;1.05;0.95;;;;;23.40;100849.00;;;;2064063;28;20214;-59
2022/05/21 01:20:22;;;;;;;1.23;1.03;;;;;23.40;100865.00;;;;2062297;28;20294;-57
2022/05/21 01:21:22;;;;;;;1.23;1.02;;;;;23.50;100868.00;;;;2062442;28;20564;-58
2022/05/21 01:22:27;;;;;;;1.13;0.87;;;;;23.40;100858.00;;;;2075826;28;20300;-57
2022/05/21 01:23:28;;;;;;;1.50;1.00;;;;;23.40;100859.00;;;;2074395;28;20225;-60
2022/05/21 01:24:28;;;;;;;1.47;1.00;;;;;23.40;100852.00;;;;2074544;28;20233;-62
2022/05/21 01:25:29;;;;;;;1.10;0.90;;;;;23.40;100857.00;;;;2070818;28;20202;-60
2022/05/21 01:26:29;;;;;;;3.10;1.10;;;;;23.40;100865.00;;;;2074739;28;20213;-57
2022/05/21 01:27:29;;;;;;;0.87;0.80;;;;;23.40;100856.00;;;;2067062;28;20446;-61
2022/05/21 01:28:33;;;;;;;1.40;0.97;;;;;23.40;100855.00;;;;2069674;28;20226;-61
2022/05/21 01:29:34;;;;;;;0.98;0.88;;;;;23.40;100855.00;;;;2077087;28;20209;-57
2022/05/21 01:30:38;;;;;;;1.37;0.80;;;;;23.40;100858.00;;;;2062254;28;20221;-56
2022/05/21 01:31:39;;;;;;;1.20;0.80;;;;;23.40;100864.00;;;;2058268;28;20735;-56
2022/05/21 01:32:39;;;;;;;1.20;0.90;;;;;23.40;100856.00;;;;2058824;28;20215;-56
2022/05/21 01:33:41;;;;;;;1.30;1.10;;;;;23.40;100861.00;;;;2066503;28;20450;-58
2022/05/21 01:34:42;;;;;;;1.27;1.17;;;;;23.40;100858.00;;;;2063793;28;20230;-59
2022/05/21 01:35:43;;;;;;;1.60;1.10;;;;;23.40;100860.00;;;;2073686;28;20222;-56
2022/05/21 01:36:43;;;;;;;1.55;0.90;;;;;23.40;100860.00;;;;2070250;28;20713;-56
2022/05/21 01:37:45;;;;;;;1.27;1.00;;;;;23.40;100846.00;;;;2066159;28;20222;-56
2022/05/21 01:38:46;;;;;;;1.15;1.00;;;;;23.40;100862.00;;;;2075353;28;20276;-62
2022/05/21 01:39:46;;;;;;;1.10;0.80;;;;;23.40;100848.00;;;;2077854;28;20210;-57
2022/05/21 01:40:47;;;;;;;1.30;0.90;;;;;23.40;100855.00;;;;2075331;28;20284;-62
2022/05/21 01:41:48;;;;;;;1.10;0.60;;;;;23.40;100856.00;;;;2068212;28;20260;-58
2022/05/21 01:44:37;;;;;;;1.60;0.95;;;;;23.40;100853.00;;;;2065825;28;20215;-57
2022/05/21 01:45:28;;;;;;;0.90;0.70;;;;;23.40;100853.00;;;;2071130;28;20213;-58
2022/05/21 01:46:28;;;;;;;1.00;0.80;;;;;23.40;100845.00;;;;2074245;28;20288;-57
2022/05/21 01:47:29;;;;;;;1.10;0.97;;;;;23.40;100847.00;;;;2066069;28;20217;-57
2022/05/21 01:48:31;;;;;;;1.02;0.80;;;;;23.40;100852.00;;;;2067974;28;20225;-59
2022/05/21 01:49:31;;;;;;;1.17;0.85;;;;;23.40;100855.00;;;;2061576;28;20856;-58
2022/05/21 01:50:31;;;;;;;1.33;0.90;;;;;23.40;100852.00;;;;2063389;28;20229;-60
2022/05/21 01:51:32;;;;;;;1.83;1.00;;;;;23.40;100850.00;;;;2070927;28;20222;-60
2022/05/21 01:52:32;;;;;;;1.03;0.80;;;;;23.40;100852.00;;;;2075968;28;20588;-58
2022/05/21 01:53:32;;;;;;;1.27;0.90;;;;;23.40;100853.00;;;;2076211;28;20356;-57
2022/05/21 01:54:33;;;;;;;1.17;0.90;;;;;23.40;100851.00;;;;2072963;28;20225;-58
2022/05/21 01:55:33;;;;;;;1.20;1.00;;;;;23.40;100853.00;;;;2064745;28;20801;-60
2022/05/21 01:56:33;;;;;;;1.33;1.07;;;;;23.40;100839.00;;;;2073527;28;20220;-59
2022/05/21 01:57:34;;;;;;;1.30;1.00;;;;;23.40;100853.00;;;;2071616;28;20214;-60
2022/05/21 01:58:34;;;;;;;1.17;0.90;;;;;23.40;100834.00;;;;2074389;28;20248;-58
2022/05/21 01:59:35;;;;;;;1.20;0.80;;;;;23.40;100834.00;;;;2074929;28;20209;-57
2022/05/21 02:00:36;;;;;;;1.25;0.90;;;;;23.40;100844.00;;;;2065357;28;20935;-56
2022/05/21 02:01:36;;;;;;;1.10;0.97;;;;;23.40;100839.00;;;;2063389;28;20217;-57
2022/05/21 02:02:37;;;;;;;0.97;0.90;;;;;23.40;100837.00;;;;2065075;28;20242;-57
2022/05/21 02:03:37;;;;;;;1.83;0.70;;;;;23.40;100836.00;;;;2073841;28;20206;-56
2022/05/21 02:04:37;;;;;;;1.03;0.80;;;;;23.40;100833.00;;;;2072485;28;20275;-57
2022/05/21 02:05:38;;;;;;;1.83;1.07;;;;;23.40;100844.00;;;;2060448;28;20274;-56
2022/05/21 02:06:38;;;;;;;1.47;1.00;;;;;23.40;100835.00;;;;2056917;28;20208;-61
2022/05/21 02:07:38;;;;;;;0.90;0.83;;;;;23.40;100846.00;;;;2057034;28;20223;-59
2022/05/21 02:08:39;;;;;;;1.40;0.80;;;;;23.40;100848.00;;;;2076360;28;20302;-57
2022/05/21 02:09:39;;;;;;;2.93;1.33;;;;;23.40;100838.00;;;;2073632;28;20206;-61
2022/05/21 02:10:39;;;;;;;1.00;0.90;;;;;23.40;100832.00;;;;2074676;28;20209;-57
2022/05/21 02:11:40;;;;;;;1.10;0.93;;;;;23.40;100849.00;;;;2074367;28;20260;-61
2022/05/21 02:12:40;;;;;;;1.03;0.90;;;;;23.40;100838.00;;;;2070031;28;21086;-58
2022/05/21 02:13:40;;;;;;;1.30;0.90;;;;;23.40;100844.00;;;;2070287;28;20571;-62
2022/05/21 02:14:41;;;;;;;0.97;0.87;;;;;23.40;100845.00;;;;2067750;28;20747;-60
2022/05/21 02:15:41;;;;;;;1.80;0.80;;;;;23.40;100854.00;;;;2076371;28;20651;-62
2022/05/21 02:16:42;;;;;;;1.10;0.90;;;;;23.40;100850.00;;;;2074082;28;20311;-59
2022/05/21 02:17:42;;;;;;;1.17;0.90;;;;;23.40;100846.00;;;;2065078;28;20822;-59
2022/05/21 02:18:42;;;;;;;1.10;0.77;;;;;23.40;100838.00;;;;2073239;28;20393;-57
2022/05/21 02:19:43;;;;;;;1.20;1.10;;;;;23.40;100822.00;;;;2084731;28;20212;-56
2022/05/21 02:20:43;;;;;;;1.20;1.00;;;;;23.40;100845.00;;;;2070548;28;20202;-61
2022/05/21 02:21:43;;;;;;;1.10;0.87;;;;;23.40;100844.00;;;;2074604;28;20206;-59
2022/05/21 02:22:44;;;;;;;1.23;1.00;;;;;23.40;100831.00;;;;2078346;28;20210;-57
2022/05/21 02:23:44;;;;;;;1.17;0.90;;;;;23.40;100843.00;;;;2066331;28;20214;-57
2022/05/21 02:24:45;;;;;;;0.90;0.80;;;;;23.40;100839.00;;;;2074618;28;20214;-57
2022/05/21 02:25:45;;;;;;;0.90;0.60;;;;;23.40;100830.00;;;;2065544;28;20289;-58
2022/05/21 02:26:46;;;;;;;1.30;0.80;;;;;23.40;100832.00;;;;2069521;28;20289;-57
2022/05/21 02:27:46;;;;;;;1.37;0.90;;;;;23.40;100835.00;;;;2073570;28;20360;-57
2022/05/21 02:28:46;;;;;;;1.00;0.90;;;;;23.40;100843.00;;;;2077922;28;20213;-58
2022/05/21 02:29:47;;;;;;;1.67;1.00;;;;;23.40;100844.00;;;;2078398;28;20214;-58
2022/05/21 02:30:47;;;;;;;1.10;0.90;;;;;23.40;100828.00;;;;2078506;28;20290;-58
2022/05/21 02:31:50;;;;;;;1.73;1.03;;;;;23.40;100829.00;;;;2078443;28;20217;-58
2022/05/21 02:32:50;;;;;;;1.38;1.05;;;;;23.40;100835.00;;;;2078577;28;20214;-57
2022/05/21 02:33:50;;;;;;;2.93;1.00;;;;;23.40;100835.00;;;;2077826;28;20224;-58
2022/05/21 02:34:51;;;;;;;1.10;1.00;;;;;23.40;100834.00;;;;2076908;28;20795;-58
2022/05/21 02:35:51;;;;;;;1.27;0.90;;;;;23.40;100827.00;;;;2077604;28;20681;-58
2022/05/21 02:39:29;;;;;;;1.15;1.05;;;;;23.40;100834.00;;;;2078364;28;20209;-58
2022/05/21 02:40:30;;;;;;;1.07;0.80;;;;;23.40;100845.00;;;;2077653;28;20205;-58
2022/05/21 02:41:30;;;;;;;1.10;0.82;;;;;23.40;100849.00;;;;2077328;28;20759;-56
2022/05/21 02:42:43;;;;;;;1.10;0.70;;;;;23.40;100832.00;;;;2077291;28;20233;-56
2022/05/21 02:43:43;;;;;;;1.30;1.10;;;;;23.40;100839.00;;;;2071395;28;20625;-59
2022/05/21 02:44:44;;;;;;;1.47;1.00;;;;;23.40;100844.00;;;;2078001;28;20209;-59
2022/05/21 02:45:44;;;;;;;1.10;0.80;;;;;23.40;100846.00;;;;2077699;28;20237;-56
2022/05/21 02:46:44;;;;;;;1.00;0.80;;;;;23.40;100843.00;;;;2069370;28;20997;-57
2022/05/21 02:47:45;;;;;;;1.03;0.87;;;;;23.40;100848.00;;;;2069473;28;20697;-57
2022/05/21 02:48:45;;;;;;;0.90;0.80;;;;;23.40;100845.00;;;;2082602;28;20629;-57
2022/05/21 02:49:46;;;;;;;1.20;0.83;;;;;23.40;100846.00;;;;2084525;28;20220;-58
2022/05/21 02:50:46;;;;;;;1.10;0.90;;;;;23.40;100843.00;;;;2072100;28;20245;-57
2022/05/21 02:51:46;;;;;;;1.57;0.90;;;;;23.40;100843.00;;;;2071556;28;20214;-56
2022/05/21 02:52:47;;;;;;;1.20;1.10;;;;;23.40;100843.00;;;;2063006;28;20666;-57
2022/05/21 02:53:47;;;;;;;1.00;0.70;;;;;23.40;100844.00;;;;2063003;28;20266;-58
2022/05/21 02:54:47;;;;;;;1.47;1.37;;;;;23.40;100835.00;;;;2079488;28;20574;-56
2022/05/21 02:55:49;;;;;;;1.10;0.90;;;;;23.30;100838.00;;;;2070167;28;20902;-57
2022/05/21 02:56:50;;;;;;;1.15;0.93;;;;;23.40;100823.00;;;;2076606;28;20296;-61
2022/05/21 02:57:50;;;;;;;1.10;0.80;;;;;23.40;100848.00;;;;2074223;28;20490;-57
2022/05/21 02:58:50;;;;;;;1.57;1.10;;;;;23.40;100843.00;;;;2075213;28;20222;-58
2022/05/21 02:59:51;;;;;;;1.67;1.13;;;;;23.40;100844.00;;;;2072000;28;20225;-57
2022/05/21 03:00:52;;;;;;;1.03;0.70;;;;;23.40;100850.00;;;;2072030;28;20234;-57
2022/05/21 03:01:52;;;;;;;1.17;0.70;;;;;23.40;100848.00;;;;2071705;28;20976;-57
2022/05/21 03:02:53;;;;;;;1.60;0.90;;;;;23.40;100846.00;;;;2071068;28;20946;-58
2022/05/21 03:03:53;;;;;;;0.87;0.80;;;;;23.30;100851.00;;;;2062995;28;20219;-58
2022/05/21 03:04:53;;;;;;;0.80;0.77;;;;;23.40;100853.00;;;;2070961;28;20698;-57
2022/05/21 03:05:54;;;;;;;1.17;1.00;;;;;23.40;100853.00;;;;2070517;28;20685;-58
2022/05/21 03:06:54;;;;;;;1.03;0.90;;;;;23.40;100850.00;;;;2070726;28;20214;-57
2022/05/21 03:07:55;;;;;;;2.00;0.90;;;;;23.40;100851.00;;;;2061773;28;20215;-57
2022/05/21 03:10:21;;;;;;;1.20;0.95;;;;;23.40;100858.00;;;;2071058;28;20718;-57
2022/05/21 03:11:21;;;;;;;1.38;0.80;;;;;23.40;100848.00;;;;2070762;28;20245;-58
2022/05/21 03:12:22;;;;;;;1.97;0.80;;;;;23.40;100847.00;;;;2061546;28;20736;-58
2022/05/21 03:13:22;;;;;;;1.80;0.90;;;;;23.40;100857.00;;;;2070855;28;20823;-58
2022/05/21 03:14:23;;;;;;;1.03;0.80;;;;;23.30;100849.00;;;;2067819;28;20210;-58
2022/05/21 03:15:41;;;;;;;0.90;0.70;;;;;23.40;100854.00;;;;2069867;28;20210;-58
2022/05/21 03:16:41;;;;;;;1.10;1.00;;;;;23.30;100855.00;;;;2065928;28;20248;-55
2022/05/21 03:17:42;;;;;;;0.93;0.83;;;;;23.40;100851.00;;;;2071423;28;20214;-57
2022/05/21 03:18:43;;;;;;;0.90;0.63;;;;;23.40;100851.00;;;;2070539;28;20218;-57
2022/05/21 03:19:43;;;;;;;1.10;0.80;;;;;23.30;100853.00;;;;2070891;28;20239;-58
2022/05/21 03:20:43;;;;;;;0.97;0.90;;;;;23.40;100853.00;;;;2071516;28;20321;-58
2022/05/21 03:21:44;;;;;;;1.47;1.00;;;;;23.30;100853.00;;;;2071659;28;20698;-58
2022/05/21 03:22:44;;;;;;;1.60;1.10;;;;;23.30;100827.00;;;;2071409;28;20737;-58
2022/05/21 03:23:44;;;;;;;2.03;0.93;;;;;23.30;100848.00;;;;2062825;28;20722;-55
2022/05/21 03:24:45;;;;;;;1.80;1.10;;;;;23.30;100855.00;;;;2062309;28;20707;-58
2022/05/21 03:25:45;;;;;;;0.90;0.77;;;;;23.40;100849.00;;;;2070275;28;20225;-58
2022/05/21 03:26:46;;;;;;;1.10;0.90;;;;;23.30;100855.00;;;;2071151;28;20699;-58
2022/05/21 03:27:46;;;;;;;1.00;0.90;;;;;23.30;100852.00;;;;2071499;28;20779;-58
2022/05/21 03:28:47;;;;;;;1.50;0.97;;;;;23.30;100859.00;;;;2071057;28;20206;-56
2022/05/21 03:29:47;;;;;;;1.17;0.90;;;;;23.30;100860.00;;;;2062812;28;20264;-57
2022/05/21 03:30:47;;;;;;;0.90;0.77;;;;;23.30;100859.00;;;;2071032;28;20219;-58
2022/05/21 03:31:48;;;;;;;1.27;1.03;;;;;23.30;100856.00;;;;2069985;28;20214;-58
2022/05/21 03:32:48;;;;;;;1.00;0.90;;;;;23.30;100857.00;;;;2070636;28;20198;-58
2022/05/21 03:33:48;;;;;;;1.73;0.90;;;;;23.30;100862.00;;;;2078797;28;20209;-59
2022/05/21 03:34:49;;;;;;;0.80;0.73;;;;;23.30;100861.00;;;;2079134;28;20210;-58
2022/05/21 03:35:49;;;;;;;1.17;1.07;;;;;23.30;100861.00;;;;2078858;28;20708;-56
2022/05/21 03:36:49;;;;;;;1.00;0.80;;;;;23.30;100865.00;;;;2078266;28;20701;-57
2022/05/21 03:37:50;;;;;;;1.17;0.67;;;;;23.30;100866.00;;;;2079149;28;20261;-59
2022/05/21 03:38:51;;;;;;;1.02;0.70;;;;;23.30;100868.00;;;;2073079;28;20222;-58
2022/05/21 03:39:51;;;;;;;0.83;0.60;;;;;23.30;100870.00;;;;2070727;28;20202;-56
2022/05/21 03:40:52;;;;;;;1.50;0.90;;;;;23.30;100868.00;;;;2070872;28;20206;-56
2022/05/21 03:41:52;;;;;;;1.37;0.80;;;;;23.30;100867.00;;;;2070804;28;20297;-58
2022/05/21 03:42:52;;;;;;;1.03;0.70;;;;;23.30;100867.00;;;;2071492;28;20206;-57
2022/05/21 03:43:54;;;;;;;1.10;0.90;;;;;23.30;100865.00;;;;2071192;28;20313;-57
2022/05/21 03:44:54;;;;;;;1.08;0.85;;;;;23.30;100863.00;;;;2070856;28;20670;-58
2022/05/21 03:45:55;;;;;;;1.30;1.07;;;;;23.30;100861.00;;;;2077835;28;20217;-58
2022/05/21 03:46:58;;;;;;;1.60;0.90;;;;;23.30;100859.00;;;;2079289;28;20209;-57
2022/05/21 03:47:59;;;;;;;1.65;0.90;;;;;23.30;100853.00;;;;2075189;28;21169;-56
2022/05/21 03:48:59;;;;;;;1.53;1.00;;;;;23.30;100858.00;;;;2075339;28;20301;-57
2022/05/21 03:50:00;;;;;;;0.77;0.70;;;;;23.30;100864.00;;;;2074289;28;20736;-61
2022/05/21 03:51:00;;;;;;;1.17;0.70;;;;;23.30;100870.00;;;;2065078;28;20245;-58
2022/05/21 03:52:01;;;;;;;0.80;0.60;;;;;23.30;100861.00;;;;2072795;28;20241;-57
2022/05/21 03:53:01;;;;;;;1.37;0.90;;;;;23.30;100878.00;;;;2071268;28;20258;-57
2022/05/21 03:54:01;;;;;;;1.20;1.10;;;;;23.30;100869.00;;;;2070474;28;20226;-56
2022/05/21 03:55:02;;;;;;;1.40;0.90;;;;;23.30;100869.00;;;;2070657;28;20723;-57
2022/05/21 03:56:03;;;;;;;1.60;1.20;;;;;23.30;100866.00;;;;2070534;28;20276;-56
2022/05/21 03:57:04;;;;;;;2.20;1.00;;;;;23.30;100873.00;;;;2062378;28;20262;-58
2022/05/21 03:58:04;;;;;;;0.90;0.80;;;;;23.30;100865.00;;;;2062449;28;20470;-56
2022/05/21 03:59:04;;;;;;;1.30;0.90;;;;;23.30;100867.00;;;;2076044;28;21099;-57
2022/05/21 04:00:08;;;;;;;1.13;0.93;;;;;23.30;100862.00;;;;2071508;28;20242;-58
2022/05/21 04:01:09;;;;;;;1.35;1.00;;;;;23.30;100860.00;;;;2070545;28;20700;-56
2022/05/21 04:02:09;;;;;;;1.10;0.90;;;;;23.30;100861.00;;;;2070333;28;20218;-59
2022/05/21 04:03:10;;;;;;;1.53;1.10;;;;;23.30;100859.00;;;;2071228;28;20215;-58
2022/05/21 04:04:10;;;;;;;1.00;0.70;;;;;23.30;100861.00;;;;2070411;28;20225;-57
2022/05/21 04:05:10;;;;;;;1.17;0.90;;;;;23.30;100858.00;;;;2062548;28;20222;-58
2022/05/21 04:06:12;;;;;;;1.50;1.00;;;;;23.30;100861.00;;;;2069794;28;20222;-58
2022/05/21 04:07:13;;;;;;;1.10;0.90;;;;;23.30;100855.00;;;;2069181;28;20256;-59
2022/05/21 04:08:15;;;;;;;1.23;0.80;;;;;23.30;100859.00;;;;2071284;28;20678;-57
2022/05/21 04:09:15;;;;;;;1.08;0.75;;;;;23.30;100859.00;;;;2071180;28;20221;-58
2022/05/21 04:10:16;;;;;;;1.00;0.87;;;;;23.30;100861.00;;;;2071257;28;20241;-58
2022/05/21 04:11:17;;;;;;;1.23;0.95;;;;;23.30;100860.00;;;;2070356;28;20242;-56
2022/05/21 04:12:17;;;;;;;2.37;1.10;;;;;23.30;100865.00;;;;2070511;28;20265;-57
2022/05/21 04:13:17;;;;;;;1.23;0.80;;;;;23.30;100866.00;;;;2070104;28;20203;-58
2022/05/21 04:14:18;;;;;;;1.53;0.93;;;;;23.30;100874.00;;;;2054263;28;20239;-56
2022/05/21 04:15:18;;;;;;;1.00;0.90;;;;;23.30;100863.00;;;;2062234;28;20215;-59
2022/05/21 04:16:18;;;;;;;1.57;0.93;;;;;23.30;100862.00;;;;2078566;28;20322;-58
2022/05/21 04:17:19;;;;;;;1.30;0.87;;;;;23.30;100858.00;;;;2079561;28;20209;-58
2022/05/21 04:18:19;;;;;;;1.03;0.80;;;;;23.30;100866.00;;;;2074152;28;20252;-64
2022/05/21 04:19:19;;;;;;;1.20;1.00;;;;;23.30;100863.00;;;;2062810;28;20207;-59
2022/05/21 04:20:23;;;;;;;1.80;0.97;;;;;23.30;100868.00;;;;2069071;28;20859;-58
2022/05/21 04:21:26;;;;;;;1.15;0.80;;;;;23.30;100871.00;;;;2070924;28;20470;-57
2022/05/21 04:22:26;;;;;;;1.25;0.80;;;;;23.30;100871.00;;;;2068654;28;20690;-57
2022/05/21 04:23:27;;;;;;;3.63;0.73;;;;;23.30;100874.00;;;;2072052;28;20216;-56
2022/05/21 04:24:27;;;;;;;3.20;1.00;;;;;23.30;100873.00;;;;2071135;28;20202;-58
2022/05/21 04:25:27;;;;;;;1.30;0.90;;;;;23.30;100875.00;;;;2074397;28;20206;-59
2022/05/21 04:26:28;;;;;;;1.20;1.10;;;;;23.30;100874.00;;;;2074385;28;20202;-61
2022/05/21 04:27:28;;;;;;;1.47;0.87;;;;;23.30;100869.00;;;;2074353;28;20232;-57
2022/05/21 04:28:29;;;;;;;1.70;1.10;;;;;23.30;100879.00;;;;2074415;28;20206;-58
2022/05/21 04:29:29;;;;;;;1.33;0.90;;;;;23.30;100871.00;;;;2079508;28;20716;-57
2022/05/21 04:30:30;;;;;;;0.97;0.87;;;;;23.30;100871.00;;;;2075697;28;20802;-58
2022/05/21 04:31:30;;;;;;;1.77;0.90;;;;;23.30;100882.00;;;;2068622;28;20734;-58
2022/05/21 04:32:31;;;;;;;2.10;1.30;;;;;23.30;100880.00;;;;2062672;28;20489;-58
2022/05/21 04:33:31;;;;;;;1.20;1.10;;;;;23.30;100879.00;;;;2066100;28;20214;-59
2022/05/21 04:34:31;;;;;;;1.20;1.10;;;;;23.30;100883.00;;;;2075025;28;21099;-58
2022/05/21 04:36:51;;;;;;;1.70;0.95;;;;;23.30;100886.00;;;;2070245;28;20222;-58
2022/05/21 04:37:51;;;;;;;1.30;1.10;;;;;23.30;100881.00;;;;2071107;28;20214;-57
2022/05/21 04:38:52;;;;;;;1.20;0.93;;;;;23.30;100883.00;;;;2069787;28;20210;-57
2022/05/21 04:39:52;;;;;;;1.80;1.20;;;;;23.30;100889.00;;;;2062158;28;20225;-57
2022/05/21 04:40:53;;;;;;;1.77;1.40;;;;;23.30;100885.00;;;;2070299;28;20457;-57
2022/05/21 04:41:53;;;;;;;1.10;1.00;;;;;23.30;100879.00;;;;2071048;28;20206;-57
2022/05/21 04:42:55;;;;;;;1.40;1.17;;;;;23.30;100883.00;;;;2070273;28;20451;-57
2022/05/21 04:43:56;;;;;;;1.20;1.10;;;;;23.30;100882.00;;;;2069090;28;20206;-58
2022/05/21 04:44:56;;;;;;;1.67;1.13;;;;;23.30;100875.00;;;;2062545;28;20215;-59
2022/05/21 04:45:56;;;;;;;1.23;1.10;;;;;23.30;100892.00;;;;2068384;28;20237;-58
2022/05/21 04:46:58;;;;;;;1.43;1.23;;;;;23.30;100885.00;;;;2078225;28;20213;-56
2022/05/21 04:48:02;;;;;;;2.00;1.27;;;;;23.30;100888.00;;;;2078736;28;20206;-58
2022/05/21 04:49:03;;;;;;;1.38;1.10;;;;;23.30;100889.00;;;;2078377;28;20312;-58
2022/05/21 04:50:04;;;;;;;1.20;1.07;;;;;23.30;100900.00;;;;2062061;28;20616;-58
2022/05/21 04:51:04;;;;;;;1.38;1.00;;;;;23.30;100896.00;;;;2062002;28;20247;-57
2022/05/21 04:52:05;;;;;;;1.47;1.20;;;;;23.30;100889.00;;;;2070126;28;20221;-55
2022/05/21 04:53:05;;;;;;;1.40;1.10;;;;;23.30;100888.00;;;;2070211;28;20217;-57
2022/05/21 04:54:06;;;;;;;1.73;1.20;;;;;23.30;100887.00;;;;2078502;28;20217;-57
2022/05/21 04:55:08;;;;;;;1.60;1.10;;;;;23.30;100888.00;;;;2082791;28;20230;-56
2022/05/21 04:56:08;;;;;;;1.35;1.20;;;;;23.30;100896.00;;;;2066420;28;20214;-58
2022/05/21 04:57:09;;;;;;;1.57;1.23;;;;;23.30;100894.00;;;;2068001;28;20276;-58
2022/05/21 04:58:09;;;;;;;1.20;1.10;;;;;23.30;100892.00;;;;2062006;28;20325;-58
2022/05/21 04:59:10;;;;;;;2.03;1.30;;;;;23.30;100894.00;;;;2072853;28;20226;-58
2022/05/21 05:00:11;;;;;;;1.73;1.10;;;;;23.30;100895.00;;;;2078221;28;20218;-58
2022/05/21 05:01:11;;;;;;;1.50;1.07;;;;;23.30;100898.00;;;;2071076;28;20957;-58
2022/05/21 05:02:12;;;;;;;1.50;1.30;;;;;23.30;100893.00;;;;2070277;28;20218;-58
2022/05/21 05:03:13;;;;;;;1.00;0.80;;;;;23.30;100897.00;;;;2077661;28;20225;-58
2022/05/21 05:04:13;;;;;;;1.23;1.00;;;;;23.30;100893.00;;;;2078995;28;20300;-58
2022/05/21 05:05:13;;;;;;;1.53;1.07;;;;;23.30;100889.00;;;;2079091;28;20440;-58
2022/05/21 05:06:14;;;;;;;1.50;1.37;;;;;23.30;100903.00;;;;2077048;28;20344;-58
2022/05/21 05:07:14;;;;;;;2.03;1.30;;;;;23.30;100898.00;;;;2077932;28;20214;-58
2022/05/21 05:08:15;;;;;;;1.43;1.20;;;;;23.30;100897.00;;;;2078726;28;20240;-58
2022/05/21 05:09:19;;;;;;;1.85;1.33;;;;;23.30;100899.00;;;;2077755;28;20611;-58
2022/05/21 05:10:20;;;;;;;1.20;1.10;;;;;23.30;100902.00;;;;2078238;28;20932;-57